Terminal Aerodrome Forecast
Issued by NWS Sterling, VA

Current Version | Previous Version | Graphics & Text | Print | Product List | Glossary On
Versions: 1 2 3 4 5 6 7 8 9 10 11 12 13 14 15 16 17 18 19 20 21 22 23 24 25 26
349
FTUS41 KLWX 230236 AAB
TAFMRB
TAF AMD
KMRB 230236Z 2303/2324 02007KT 3SM -RA OVC003
     FM230600 07010G20KT 2SM -RA OVC003
     FM231800 06010G18KT 1SM -RA OVC003=

USA.gov is the U.S. government's official web portal to all federal, state and local government web resources and services.